South Dos Palos, California
Current Conditions -  °F | °C
As of 1:02 AM on Wednesday 26 Nov 2014 (Local Time) from KMCE Reporting Station
Haze Haze  
Wind Chill: 39°   Ceiling: Unl
Heat Index: 42°   Visibility: 2.5mi
Dew Point: 38°   Wind: 5mph
Humidity: 85%   Direction: 150°SSE
Pressure: 30.35"   Gusts: NA
Location:  36.96°N, 120.65°W
Report Text: KMCE 260902Z AUTO 15004KT 2 1/2SM BR CLR 06/03 A3035 RMK AO2 T00560033
Loading
Personal Weather Stations






























Interactive Weather Map New forecast layout! Learn more

10-Day Weather Forecast

Advertisements
Track Severe Weather on mobile